Time;durP1;ratioP1;P1;durP2;ratioP2;P2;SDS_P1;SDS_P2;PMS_P1;PMS_P2;Temp;Humidity;BMP_temperature;BMP_pressure;BME280_temperature;BME280_humidity;BME280_pressure;Samples;Min_cycle;Max_cycle;Signal;HPM_P1;HPM_P2
2022/03/31 00:01:41;;;;;;;;;46.50;38.75;;;;;12.57;52.92;99248.66;5018411;28;45585;-66
2022/03/31 00:04:07;;;;;;;;;50.75;41.00;;;;;12.57;52.72;99252.16;5019154;28;46324;-66
2022/03/31 00:06:32;;;;;;;;;48.00;39.25;;;;;12.56;53.09;99261.00;5028794;28;45490;-66
2022/03/31 00:08:58;;;;;;;;;48.75;39.00;;;;;12.54;53.25;99264.66;5037952;28;45411;-62
2022/03/31 00:11:23;;;;;;;;;36.25;35.00;;;;;12.41;52.93;99261.97;5038207;28;45445;-64
2022/03/31 00:13:49;;;;;;;;;44.50;38.25;;;;;12.35;53.42;99255.31;5038097;28;46208;-66
2022/03/31 00:16:14;;;;;;;;;43.00;37.50;;;;;12.35;53.00;99251.81;5038039;28;45467;-65
2022/03/31 00:18:40;;;;;;;;;40.75;35.75;;;;;12.32;53.17;99246.75;5037248;28;45395;-66
2022/03/31 00:21:05;;;;;;;;;41.00;34.75;;;;;12.35;52.97;99250.03;5036506;28;45365;-65
2022/03/31 00:23:31;;;;;;;;;37.75;33.50;;;;;12.40;53.22;99255.03;5017636;28;45508;-65
2022/03/31 00:25:57;;;;;;;;;36.25;33.00;;;;;12.33;52.95;99246.66;5017683;28;45518;-66
2022/03/31 00:28:23;;;;;;;;;42.75;36.00;;;;;12.35;52.76;99242.13;5018054;28;45380;-66
2022/03/31 00:30:49;;;;;;;;;37.25;35.00;;;;;12.44;52.20;99243.34;5016845;28;45411;-63
2022/03/31 00:33:15;;;;;;;;;35.50;32.75;;;;;12.46;51.80;99237.94;5017663;28;45439;-65
2022/03/31 00:35:40;;;;;;;;;37.75;32.00;;;;;12.48;51.54;99234.28;5017783;28;45480;-65
2022/03/31 00:38:05;;;;;;;;;28.50;28.50;;;;;12.46;51.89;99232.69;5016483;28;45499;-65
2022/03/31 00:40:31;;;;;;;;;39.25;34.50;;;;;12.50;51.33;99232.38;5028368;28;45364;-64
2022/03/31 00:42:58;;;;;;;;;35.75;33.75;;;;;12.51;51.27;99230.59;5037066;28;45413;-66
2022/03/31 00:45:27;;;;;;;;;31.50;29.75;;;;;12.47;50.58;99222.03;5037142;28;45400;-64
2022/03/31 00:47:54;;;;;;;;;33.00;27.00;;;;;12.46;51.38;99227.41;5037483;28;45469;-64
2022/03/31 00:50:20;;;;;;;;;32.25;32.25;;;;;12.36;50.74;99222.75;5025600;28;45468;-65
2022/03/31 00:52:46;;;;;;;;;33.75;32.00;;;;;12.38;50.70;99222.63;5017193;28;46427;-65
2022/03/31 00:55:14;;;;;;;;;36.75;31.50;;;;;12.33;50.75;99209.75;5017275;28;45494;-66
2022/03/31 00:57:42;;;;;;;;;35.25;31.25;;;;;12.34;51.70;99221.16;5016774;28;45444;-64
2022/03/31 01:00:09;;;;;;;;;38.50;31.75;;;;;12.36;50.52;99216.63;5017218;28;45371;-66
2022/03/31 01:02:37;;;;;;;;;29.75;27.00;;;;;12.38;50.34;99220.00;5017161;28;46146;-66
2022/03/31 01:05:03;;;;;;;;;35.00;32.00;;;;;12.34;51.34;99208.81;5031507;28;45490;-66
2022/03/31 01:07:29;;;;;;;;;36.75;32.00;;;;;12.33;51.12;99208.91;5017240;28;45526;-66
2022/03/31 01:09:56;;;;;;;;;35.25;33.25;;;;;12.36;50.53;99212.19;5017485;28;45361;-66
2022/03/31 01:12:22;;;;;;;;;28.50;27.50;;;;;12.31;51.21;99192.34;5017329;28;45427;-68
2022/03/31 01:15:02;;;;;;;;;40.00;34.50;;;;;12.40;50.92;99194.38;5017151;28;45356;-62
2022/03/31 01:17:27;;;;;;;;;31.25;31.25;;;;;12.45;50.67;99196.72;5018249;28;45449;-64
2022/03/31 01:19:52;;;;;;;;;28.25;28.25;;;;;12.46;50.64;99204.50;5037298;28;45433;-63
2022/03/31 01:22:18;;;;;;;;;38.00;33.75;;;;;12.47;50.63;99200.94;5037035;28;45589;-64
2022/03/31 01:24:43;;;;;;;;;31.00;29.25;;;;;12.49;50.85;99201.72;5037184;28;45488;-63
2022/03/31 01:27:11;;;;;;;;;40.25;32.50;;;;;12.49;50.61;99196.44;5037622;28;45479;-69
2022/03/31 01:29:37;;;;;;;;;37.00;33.00;;;;;12.50;50.77;99197.28;5033585;28;45704;-66
2022/03/31 01:32:02;;;;;;;;;33.00;30.25;;;;;12.45;50.67;99194.09;5016878;28;46018;-63
2022/03/31 01:34:28;;;;;;;;;31.00;27.00;;;;;12.40;51.39;99183.84;5017101;28;45375;-66
2022/03/31 01:36:53;;;;;;;;;34.00;29.50;;;;;12.40;51.06;99185.63;5016981;28;45392;-64
2022/03/31 01:39:18;;;;;;;;;35.00;32.75;;;;;12.33;51.74;99175.50;5017021;28;45514;-64
2022/03/31 01:41:44;;;;;;;;;36.00;32.75;;;;;12.36;51.80;99174.44;5017016;28;46200;-66
2022/03/31 01:44:10;;;;;;;;;35.75;32.00;;;;;12.31;51.62;99174.75;5018190;28;45463;-63
2022/03/31 01:46:35;;;;;;;;;33.75;30.50;;;;;12.37;50.84;99176.13;5035690;28;45525;-65
2022/03/31 01:49:00;;;;;;;;;33.75;29.75;;;;;12.38;51.77;99169.91;5036939;28;45375;-65
2022/03/31 01:51:26;;;;;;;;;34.75;32.25;;;;;12.34;51.16;99171.91;5035152;28;49531;-64
2022/03/31 01:53:51;;;;;;;;;37.25;32.25;;;;;12.30;51.48;99170.38;5034653;28;45518;-63
2022/03/31 01:56:16;;;;;;;;;37.50;34.25;;;;;12.23;52.18;99163.00;5036738;28;45569;-64
2022/03/31 01:58:42;;;;;;;;;40.50;34.75;;;;;12.25;50.95;99164.59;5036780;28;45421;-66
2022/03/31 02:01:07;;;;;;;;;36.75;33.75;;;;;12.18;52.34;99155.41;5036382;28;49626;-64
2022/03/31 02:03:33;;;;;;;;;38.75;34.75;;;;;12.18;52.34;99150.13;5036696;28;45385;-65
2022/03/31 02:05:59;;;;;;;;;35.25;29.75;;;;;12.06;51.45;99157.03;5035115;28;45363;-64
2022/03/31 02:08:24;;;;;;;;;43.25;34.75;;;;;12.01;52.51;99159.13;5020920;28;45427;-65
2022/03/31 02:10:49;;;;;;;;;40.00;35.50;;;;;11.85;53.10;99158.41;5016159;28;45432;-66
2022/03/31 02:13:15;;;;;;;;;37.75;34.50;;;;;11.88;52.18;99158.22;5021867;28;45384;-63
2022/03/31 02:15:41;;;;;;;;;51.00;38.25;;;;;11.89;52.17;99160.75;5036250;28;45332;-66
2022/03/31 02:18:07;;;;;;;;;38.25;36.00;;;;;11.85;52.92;99153.13;5034475;28;45623;-65
2022/03/31 02:20:32;;;;;;;;;40.75;36.25;;;;;11.89;52.82;99157.28;5035682;28;46702;-62
2022/03/31 02:23:00;;;;;;;;;43.75;37.75;;;;;11.90;52.42;99162.44;5036100;28;45559;-63
2022/03/31 02:25:26;;;;;;;;;44.00;37.25;;;;;11.91;53.06;99152.75;5036414;28;45609;-65
2022/03/31 02:27:53;;;;;;;;;45.50;38.75;;;;;11.87;53.62;99148.63;5036124;28;45639;-66
2022/03/31 02:30:19;;;;;;;;;47.25;39.50;;;;;11.88;53.46;99158.22;5035918;28;46216;-65
2022/03/31 02:32:45;;;;;;;;;44.50;38.25;;;;;11.84;53.56;99154.88;5035870;28;45327;-64
2022/03/31 02:35:11;;;;;;;;;47.50;38.25;;;;;11.74;52.90;99143.28;5036149;28;45386;-65
2022/03/31 02:37:37;;;;;;;;;49.25;41.00;;;;;11.81;53.35;99151.63;5034371;28;45479;-65
2022/03/31 02:40:04;;;;;;;;;46.25;39.25;;;;;11.84;53.43;99157.53;5035926;28;45457;-65
2022/03/31 02:42:29;;;;;;;;;52.00;40.75;;;;;11.87;54.16;99161.78;5020574;28;45427;-66
2022/03/31 02:44:55;;;;;;;;;42.50;36.75;;;;;11.88;53.81;99152.97;5016092;28;45329;-63
2022/03/31 02:47:20;;;;;;;;;46.75;40.75;;;;;11.82;53.87;99151.53;5016011;28;45415;-64
2022/03/31 02:49:45;;;;;;;;;53.00;41.50;;;;;11.83;53.28;99155.84;5015823;28;46066;-66
2022/03/31 02:52:11;;;;;;;;;42.25;37.25;;;;;11.77;53.61;99147.47;5021706;28;45432;-65
2022/03/31 02:57:20;;;;;;;;;50.50;40.50;;;;;11.67;54.70;99163.03;5035691;28;45372;-65
2022/03/31 02:59:45;;;;;;;;;48.75;42.25;;;;;11.59;53.73;99157.41;5035305;28;46192;-66
2022/03/31 03:02:11;;;;;;;;;50.50;41.50;;;;;11.54;55.02;99162.94;5034051;28;45586;-65
2022/03/31 03:04:37;;;;;;;;;52.50;42.75;;;;;11.53;54.67;99149.88;5035340;28;45384;-65
2022/03/31 03:07:03;;;;;;;;;46.50;38.75;;;;;11.47;54.33;99146.69;5033794;28;45427;-66
2022/03/31 03:09:28;;;;;;;;;55.75;44.25;;;;;11.44;54.80;99144.22;5032406;28;46111;-66
2022/03/31 03:11:53;;;;;;;;;53.00;42.25;;;;;11.48;54.58;99139.63;5014173;28;45412;-64
2022/03/31 03:14:19;;;;;;;;;51.50;42.75;;;;;11.50;54.01;99130.69;5015573;28;45436;-65
2022/03/31 03:16:44;;;;;;;;;51.25;42.50;;;;;11.45;54.58;99129.31;5015721;28;45352;-63
2022/03/31 03:19:10;;;;;;;;;53.75;44.25;;;;;11.46;54.88;99136.25;5015499;28;46118;-65
2022/03/31 03:21:36;;;;;;;;;54.00;43.75;;;;;11.44;54.50;99124.97;5019957;28;45478;-64
2022/03/31 03:24:02;;;;;;;;;60.25;46.00;;;;;11.46;54.73;99128.34;5022775;28;45388;-63
2022/03/31 03:26:28;;;;;;;;;57.50;44.00;;;;;11.45;54.76;99130.13;5041876;28;45537;-64
2022/03/31 03:28:55;;;;;;;;;52.00;43.25;;;;;11.45;54.70;99124.88;5041671;28;45485;-63
2022/03/31 03:31:20;;;;;;;;;56.00;46.25;;;;;11.43;54.96;99113.59;5041626;28;45453;-66
2022/03/31 03:33:45;;;;;;;;;53.25;43.25;;;;;11.36;54.27;99101.75;5041957;28;45840;-64
2022/03/31 03:36:12;;;;;;;;;54.50;45.00;;;;;11.43;54.73;99116.22;5027116;28;45594;-66
2022/03/31 03:38:41;;;;;;;;;46.50;39.00;;;;;11.43;54.43;99120.66;5021954;28;45594;-62
2022/03/31 03:41:07;;;;;;;;;52.75;42.00;;;;;11.33;54.61;99099.31;5021759;28;45440;-67
2022/03/31 03:43:33;;;;;;;;;56.00;45.00;;;;;11.43;54.21;99113.59;5020487;28;45384;-65
2022/03/31 03:45:58;;;;;;;;;51.25;40.75;;;;;11.45;54.65;99111.72;5040109;28;45364;-66
2022/03/31 03:48:24;;;;;;;;;54.50;44.50;;;;;11.48;53.92;99113.31;5041447;28;46584;-66
2022/03/31 03:50:49;;;;;;;;;54.25;44.00;;;;;11.51;53.68;99113.09;5041837;28;45437;-64
2022/03/31 03:53:15;;;;;;;;;56.50;46.00;;;;;11.52;54.00;99113.94;5041804;28;45370;-64
2022/03/31 03:55:41;;;;;;;;;56.25;42.50;;;;;11.48;53.99;99124.69;5041796;28;45569;-66
2022/03/31 03:58:06;;;;;;;;;51.00;42.75;;;;;11.41;54.10;99119.88;5041411;28;45473;-64
2022/03/31 04:00:32;;;;;;;;;57.50;45.75;;;;;11.40;54.33;99112.94;5023870;28;45388;-63
2022/03/31 04:02:58;;;;;;;;;55.00;44.50;;;;;11.41;54.29;99117.25;5024949;28;45403;-67
2022/03/31 04:05:24;;;;;;;;;57.25;46.25;;;;;11.40;54.08;99123.47;5040996;28;45557;-67
2022/03/31 04:07:50;;;;;;;;;55.25;46.00;;;;;11.39;53.61;99129.66;5041582;28;46785;-63
2022/03/31 04:10:15;;;;;;;;;56.00;44.50;;;;;11.31;54.38;99127.53;5041138;28;45399;-62
2022/03/31 04:12:42;;;;;;;;;57.50;47.00;;;;;11.30;54.25;99127.63;5041283;28;45444;-63
2022/03/31 04:15:08;;;;;;;;;58.50;45.75;;;;;11.25;54.67;99131.38;5041732;28;45352;-63
2022/03/31 04:17:34;;;;;;;;;52.25;43.50;;;;;11.25;54.18;99128.72;5041093;28;45733;-63
2022/03/31 04:19:59;;;;;;;;;49.50;43.25;;;;;11.26;54.21;99129.59;5041291;28;45495;-65
2022/03/31 04:22:25;;;;;;;;;59.50;47.75;;;;;11.26;53.36;99130.44;5041363;28;45434;-66
2022/03/31 04:24:51;;;;;;;;;52.25;42.25;;;;;11.23;53.93;99122.75;5040064;28;45415;-64
2022/03/31 04:27:17;;;;;;;;;56.00;45.00;;;;;11.21;53.16;99132.50;5029212;28;46601;-65
2022/03/31 04:29:42;;;;;;;;;55.25;44.00;;;;;11.13;53.04;99118.97;5041146;28;45403;-65
2022/03/31 04:32:08;;;;;;;;;56.00;44.75;;;;;11.13;53.89;99134.75;5039047;28;45551;-64
2022/03/31 04:34:34;;;;;;;;;41.25;36.25;;;;;11.17;53.65;99132.78;5037642;28;45577;-64
2022/03/31 04:37:00;;;;;;;;;47.00;40.25;;;;;11.18;53.24;99131.84;5036025;28;45576;-66
2022/03/31 04:39:25;;;;;;;;;44.00;38.00;;;;;11.16;53.38;99133.72;5037728;28;45426;-63
2022/03/31 04:41:50;;;;;;;;;46.00;40.00;;;;;11.20;53.13;99133.47;5037566;28;45350;-64
2022/03/31 04:44:16;;;;;;;;;52.00;44.00;;;;;11.14;52.88;99135.59;5035612;28;45634;-64
2022/03/31 04:46:41;;;;;;;;;50.00;40.25;;;;;11.17;53.27;99141.50;5036208;28;46077;-64
2022/03/31 04:49:07;;;;;;;;;51.50;40.00;;;;;11.09;54.01;99140.28;5030990;28;45469;-66
2022/03/31 04:51:33;;;;;;;;;52.25;43.50;;;;;11.11;53.02;99139.25;5017679;28;45428;-64
2022/03/31 04:53:58;;;;;;;;;51.75;42.00;;;;;11.05;53.69;99131.75;5017514;28;45597;-64
2022/03/31 04:56:24;;;;;;;;;60.25;46.50;;;;;11.10;53.26;99136.75;5017421;28;46223;-65
2022/03/31 04:58:49;;;;;;;;;53.00;42.00;;;;;11.01;53.11;99133.69;5017437;28;45492;-63
2022/03/31 05:01:16;;;;;;;;;56.50;45.00;;;;;11.01;53.86;99132.88;5030560;28;46041;-63
2022/03/31 05:03:42;;;;;;;;;55.75;44.00;;;;;11.05;53.64;99129.13;5017598;28;45630;-62
2022/03/31 05:06:07;;;;;;;;;55.25;45.25;;;;;11.06;53.17;99117.66;5016926;28;46077;-63
2022/03/31 05:08:33;;;;;;;;;52.25;41.75;;;;;11.10;53.60;99128.84;5017560;28;45418;-65
2022/03/31 05:10:58;;;;;;;;;45.50;39.75;;;;;11.04;53.07;99125.66;5017902;28;45416;-64
2022/03/31 05:13:24;;;;;;;;;58.00;47.25;;;;;11.00;53.07;99120.66;5026011;28;45422;-63
2022/03/31 05:15:49;;;;;;;;;51.50;44.25;;;;;11.06;53.54;99130.81;5036869;28;46233;-64
2022/03/31 05:18:15;;;;;;;;;53.25;43.50;;;;;11.08;53.51;99139.47;5036942;28;45312;-64
2022/03/31 05:20:42;;;;;;;;;52.00;42.25;;;;;11.07;53.19;99145.66;5025951;28;45623;-65
2022/03/31 05:23:08;;;;;;;;;60.25;42.25;;;;;11.04;53.64;99140.56;5025619;28;45521;-65
2022/03/31 05:25:33;;;;;;;;;48.00;40.50;;;;;11.06;53.39;99146.59;5036606;28;45441;-63
2022/03/31 05:28:00;;;;;;;;;53.75;44.25;;;;;11.04;53.35;99153.72;5037028;28;45404;-62
2022/03/31 05:30:25;;;;;;;;;53.50;43.75;;;;;11.05;53.66;99152.81;5032858;28;45557;-64
2022/03/31 05:32:53;;;;;;;;;52.00;42.25;;;;;11.06;53.06;99144.81;5023680;28;45639;-64
2022/03/31 05:35:19;;;;;;;;;61.25;47.00;;;;;11.10;53.23;99150.75;5023466;28;45527;-65
2022/03/31 05:37:45;;;;;;;;;55.75;44.75;;;;;11.10;52.79;99150.75;5025595;28;45511;-61
2022/03/31 05:40:13;;;;;;;;;53.00;43.00;;;;;10.98;52.91;99133.91;5024515;28;45537;-60
2022/03/31 05:42:39;;;;;;;;;54.50;44.00;;;;;11.03;52.70;99149.41;5031677;28;45423;-62
2022/03/31 05:45:06;;;;;;;;;55.25;44.50;;;;;11.03;53.25;99159.94;5035546;28;45450;-62
2022/03/31 05:47:32;;;;;;;;;52.75;42.00;;;;;10.99;53.19;99159.28;5035988;28;45499;-64
2022/03/31 05:49:57;;;;;;;;;52.50;43.25;;;;;11.01;53.13;99161.81;5036033;28;45471;-62
2022/03/31 05:52:23;;;;;;;;;55.75;44.25;;;;;11.02;53.85;99158.25;5035844;28;45432;-62
2022/03/31 05:54:49;;;;;;;;;57.25;45.50;;;;;11.06;53.32;99167.63;5043906;28;46066;-65
2022/03/31 05:57:15;;;;;;;;;56.50;42.75;;;;;11.08;53.67;99167.56;5039455;28;45431;-63
2022/03/31 05:59:42;;;;;;;;;59.00;46.75;;;;;11.04;53.22;99162.47;5035766;28;45427;-64
2022/03/31 06:02:08;;;;;;;;;54.00;45.25;;;;;11.07;53.27;99169.34;5034148;28;45534;-66
2022/03/31 06:04:33;;;;;;;;;57.75;48.50;;;;;11.01;53.66;99173.16;5030334;28;45376;-65
2022/03/31 06:06:59;;;;;;;;;58.50;46.25;;;;;11.04;53.74;99172.13;5035707;28;45324;-65
2022/03/31 06:09:24;;;;;;;;;60.25;47.25;;;;;11.03;53.88;99176.56;5036003;28;45412;-65
2022/03/31 06:11:50;;;;;;;;;59.50;49.00;;;;;10.97;54.17;99170.84;5035893;28;45496;-64
2022/03/31 06:14:15;;;;;;;;;65.00;51.75;;;;;11.01;54.28;99185.47;5005743;28;48163;-64
2022/03/31 06:16:40;;;;;;;;;65.50;51.75;;;;;10.95;54.52;99176.16;5000905;28;45455;-61
2022/03/31 06:19:08;;;;;;;;;67.25;51.25;;;;;10.99;54.78;99182.97;5001820;28;45444;-61
2022/03/31 06:21:34;;;;;;;;;65.75;53.75;;;;;10.90;54.88;99178.22;4998038;28;45586;-61
2022/03/31 06:24:00;;;;;;;;;71.33;53.00;;;;;10.84;55.00;99179.44;5015965;28;46252;-62
2022/03/31 06:26:26;;;;;;;;;65.25;50.75;;;;;10.85;55.57;99190.81;5015936;28;45468;-61
2022/03/31 06:28:51;;;;;;;;;67.25;53.00;;;;;10.88;55.32;99187.16;5015805;28;45550;-61
2022/03/31 06:31:16;;;;;;;;;66.00;50.00;;;;;10.95;55.14;99191.13;5015741;28;45520;-62
2022/03/31 06:33:42;;;;;;;;;64.75;51.25;;;;;10.96;54.85;99190.16;4997884;28;47082;-62
2022/03/31 06:36:08;;;;;;;;;65.25;51.00;;;;;10.99;54.59;99196.13;5015543;28;45518;-62
2022/03/31 06:38:33;;;;;;;;;68.75;54.50;;;;;10.94;54.73;99192.06;5015553;28;45375;-63
2022/03/31 06:41:11;;;;;;;;;65.00;51.50;;;;;10.99;55.26;99197.91;5015614;28;45408;-62
2022/03/31 06:43:38;;;;;;;;;66.50;53.75;;;;;11.01;55.14;99204.75;5015347;28;45528;-61
2022/03/31 06:46:04;;;;;;;;;70.50;52.50;;;;;11.05;54.24;99195.75;5015008;28;45465;-63
2022/03/31 06:48:30;;;;;;;;;70.25;54.25;;;;;11.13;55.14;99197.06;5015293;28;45403;-62
2022/03/31 06:50:57;;;;;;;;;66.75;53.75;;;;;11.11;53.79;99199.78;5015280;28;45703;-63
2022/03/31 06:53:23;;;;;;;;;61.00;51.00;;;;;11.09;54.19;99196.38;4997268;28;45527;-62
2022/03/31 06:55:48;;;;;;;;;64.75;50.75;;;;;11.05;54.49;99192.25;5014190;28;45480;-61
2022/03/31 06:58:15;;;;;;;;;65.00;52.75;;;;;11.05;54.49;99194.91;5015105;28;45425;-62
2022/03/31 07:00:41;;;;;;;;;65.00;52.25;;;;;11.09;54.30;99187.66;5015064;28;45356;-62
2022/03/31 07:03:06;;;;;;;;;66.25;49.75;;;;;11.11;54.77;99181.38;5014644;28;46883;-62
2022/03/31 07:05:35;;;;;;;;;60.25;48.75;;;;;11.16;54.18;99181.09;5018070;28;45438;-61
2022/03/31 07:08:00;;;;;;;;;67.00;51.25;;;;;11.12;54.68;99183.03;5034897;28;45447;-62
2022/03/31 07:10:26;;;;;;;;;64.50;50.75;;;;;11.16;54.51;99187.19;5033436;28;50312;-63
2022/03/31 07:12:51;;;;;;;;;64.25;50.75;;;;;11.17;54.39;99188.03;5033340;28;46799;-63
2022/03/31 07:15:16;;;;;;;;;58.25;49.75;;;;;11.18;53.56;99179.22;5034687;28;45390;-62
2022/03/31 07:17:42;;;;;;;;;63.25;49.00;;;;;11.22;53.34;99178.09;5033639;28;45394;-63
2022/03/31 07:20:08;;;;;;;;;62.00;50.75;;;;;11.19;54.00;99176.47;5034987;28;45387;-61
2022/03/31 07:22:33;;;;;;;;;60.75;49.00;;;;;11.23;53.45;99182.41;5034625;28;45418;-61
2022/03/31 07:24:59;;;;;;;;;56.00;46.75;;;;;11.21;53.81;99177.25;5034695;28;45382;-62
2022/03/31 07:27:25;;;;;;;;;59.50;46.25;;;;;11.31;53.31;99177.53;5033596;28;45564;-62
2022/03/31 07:29:51;;;;;;;;;57.75;48.50;;;;;11.37;53.48;99182.41;5034485;28;45601;-62
2022/03/31 07:32:16;;;;;;;;;60.00;48.75;;;;;11.40;53.67;99189.28;5034717;28;46280;-63
2022/03/31 07:34:42;;;;;;;;;56.25;46.00;;;;;11.39;53.05;99185.81;5034275;28;45535;-62
2022/03/31 07:37:08;;;;;;;;;60.50;47.00;;;;;11.40;53.48;99194.56;5034758;28;45469;-62
2022/03/31 07:39:35;;;;;;;;;51.75;41.00;;;;;11.41;52.89;99198.88;5034571;28;45590;-63
2022/03/31 07:42:02;;;;;;;;;54.50;45.25;;;;;11.24;53.67;99184.94;5034590;28;46114;-63
2022/03/31 07:44:27;;;;;;;;;52.75;41.50;;;;;11.17;53.18;99196.78;5034494;28;45479;-62
2022/03/31 07:46:52;;;;;;;;;53.50;44.00;;;;;11.12;54.14;99192.72;5034471;28;45551;-62
2022/03/31 07:49:18;;;;;;;;;52.00;41.25;;;;;11.18;53.73;99193.22;5034349;28;45389;-62
2022/03/31 07:51:43;;;;;;;;;56.50;45.75;;;;;11.21;54.38;99200.94;5034476;28;46057;-62
2022/03/31 07:54:09;;;;;;;;;51.50;41.75;;;;;11.24;54.02;99186.75;5034230;28;45424;-62
2022/03/31 07:56:35;;;;;;;;;59.25;47.75;;;;;11.30;54.02;99196.03;5034729;28;45537;-63
2022/03/31 07:59:00;;;;;;;;;58.50;49.50;;;;;11.24;53.58;99182.31;5034506;28;45535;-63
2022/03/31 08:01:26;;;;;;;;;55.25;43.25;;;;;11.28;53.64;99188.22;5032628;28;46321;-62
2022/03/31 08:03:53;;;;;;;;;44.00;36.50;;;;;11.27;53.86;99184.75;5034504;28;45430;-62
2022/03/31 08:06:18;;;;;;;;;61.25;49.75;;;;;11.18;55.37;99201.13;5034466;28;45436;-62
2022/03/31 08:08:43;;;;;;;;;61.50;48.00;;;;;11.06;55.47;99202.69;5037536;28;45510;-62
2022/03/31 08:11:09;;;;;;;;;66.75;53.75;;;;;11.02;55.65;99205.59;5037743;28;46073;-62
2022/03/31 08:13:34;;;;;;;;;70.25;53.25;;;;;11.02;55.64;99205.59;5037716;28;45304;-62
2022/03/31 08:16:00;;;;;;;;;64.75;52.25;;;;;11.00;55.79;99194.31;5037878;28;45443;-62
2022/03/31 08:18:28;;;;;;;;;59.25;47.50;;;;;11.06;55.78;99205.31;5037575;28;45332;-61
2022/03/31 08:20:54;;;;;;;;;64.25;50.00;;;;;11.08;55.84;99221.03;5037710;28;45940;-62
2022/03/31 08:23:20;;;;;;;;;62.00;50.75;;;;;10.99;56.94;99217.16;5037402;28;45470;-62
2022/03/31 08:25:46;;;;;;;;;64.50;48.00;;;;;10.69;57.44;99196.13;5036193;28;45509;-62
2022/03/31 08:28:11;;;;;;;;;63.25;50.00;;;;;10.81;57.23;99234.84;5037571;28;45381;-62
2022/03/31 08:30:36;;;;;;;;;49.50;42.00;;;;;10.61;58.85;99224.63;5036020;28;45738;-62
2022/03/31 08:33:02;;;;;;;;;46.75;38.25;;;;;10.56;58.14;99231.97;5037337;28;45546;-62
2022/03/31 08:35:28;;;;;;;;;32.00;29.75;;;;;10.55;57.88;99227.63;5037269;28;45465;-62
2022/03/31 08:37:54;;;;;;;;;27.75;23.25;;;;;10.52;57.68;99244.41;5037472;28;45486;-62
2022/03/31 08:40:20;;;;;;;;;21.25;18.00;;;;;10.49;57.33;99252.47;5036874;28;46528;-61
2022/03/31 08:42:46;;;;;;;;;19.00;18.00;;;;;10.46;56.92;99263.16;5036956;28;45961;-61
2022/03/31 08:45:15;;;;;;;;;13.00;13.00;;;;;10.34;56.47;99267.34;5037327;28;45421;-61
2022/03/31 08:47:44;;;;;;;;;17.00;16.00;;;;;10.20;56.24;99275.09;5037044;28;45633;-62
2022/03/31 08:50:11;;;;;;;;;16.00;15.25;;;;;9.92;56.13;99273.97;5036981;28;46380;-62
2022/03/31 08:52:36;;;;;;;;;9.75;9.75;;;;;9.83;55.67;99279.75;5036883;28;45493;-63
2022/03/31 08:55:02;;;;;;;;;9.25;9.25;;;;;9.62;55.86;99289.59;5036779;28;45367;-63
2022/03/31 08:57:45;;;;;;;;;11.75;11.75;;;;;9.55;56.66;99290.84;5036942;28;45419;-64
2022/03/31 09:00:12;;;;;;;;;12.50;10.25;;;;;9.57;56.37;99299.47;5036852;28;45377;-63
2022/03/31 09:02:38;;;;;;;;;10.50;10.50;;;;;9.60;56.11;99303.72;5036671;28;45525;-62
2022/03/31 09:05:06;;;;;;;;;11.00;9.00;;;;;9.53;56.53;99303.19;5036730;28;45402;-62
2022/03/31 09:07:32;;;;;;;;;12.00;12.00;;;;;9.66;55.99;99311.28;5036665;28;45422;-62
2022/03/31 09:09:57;;;;;;;;;14.00;10.25;;;;;9.68;55.65;99312.03;5036366;28;45494;-63
2022/03/31 09:12:26;;;;;;;;;9.25;9.25;;;;;9.65;55.18;99334.06;5036705;28;45432;-62
2022/03/31 09:14:52;;;;;;;;;8.25;8.25;;;;;9.59;55.37;99339.63;5036913;28;45422;-62
2022/03/31 09:17:19;;;;;;;;;6.75;6.75;;;;;9.52;55.01;99330.34;5036644;28;45610;-62
2022/03/31 09:19:44;;;;;;;;;7.25;7.00;;;;;9.46;55.29;99346.44;5036278;28;46173;-62
2022/03/31 09:22:10;;;;;;;;;5.25;5.25;;;;;9.39;55.04;99332.75;5036402;28;45540;-62
2022/03/31 09:24:35;;;;;;;;;8.00;6.75;;;;;9.32;55.14;99341.84;5036794;28;45418;-65
2022/03/31 09:27:03;;;;;;;;;7.50;7.50;;;;;9.31;55.27;99352.44;5036626;28;45578;-62
2022/03/31 09:29:30;;;;;;;;;10.00;10.00;;;;;9.18;55.38;99349.56;5036427;28;46090;-62
2022/03/31 09:32:25;;;;;;;;;7.00;6.50;;;;;9.24;55.56;99372.88;5036279;28;45482;-62
2022/03/31 09:34:50;;;;;;;;;8.50;8.50;;;;;9.19;54.81;99373.13;5027338;28;45449;-63
2022/03/31 09:37:16;;;;;;;;;10.00;9.25;;;;;9.02;55.40;99365.22;5036587;28;45454;-62
2022/03/31 09:39:42;;;;;;;;;7.75;6.00;;;;;8.94;55.26;99369.97;5036285;28;46013;-62
2022/03/31 09:42:16;;;;;;;;;13.75;10.75;;;;;8.92;55.81;99372.69;5036319;28;45986;-61
2022/03/31 09:44:42;;;;;;;;;9.75;9.75;;;;;8.91;56.00;99381.47;5036355;28;45426;-61
2022/03/31 09:47:09;;;;;;;;;12.75;10.25;;;;;8.69;55.67;99383.41;5036265;28;45486;-62
2022/03/31 09:49:36;;;;;;;;;7.75;7.75;;;;;8.71;56.01;99378.97;5036379;28;46199;-61
2022/03/31 09:52:04;;;;;;;;;13.00;12.00;;;;;8.79;55.79;99397.81;5036152;28;45370;-62
2022/03/31 09:54:32;;;;;;;;;8.00;8.00;;;;;8.80;55.83;99391.63;5035952;28;45467;-62
2022/03/31 09:56:59;;;;;;;;;10.25;8.75;;;;;8.83;55.96;99389.69;5036059;28;45609;-63
2022/03/31 09:59:48;;;;;;;;;8.75;8.75;;;;;8.83;55.67;99391.47;5035827;28;45514;-62
2022/03/31 10:02:15;;;;;;;;;9.00;9.00;;;;;8.79;55.72;99392.56;5035909;28;45501;-62
2022/03/31 10:04:44;;;;;;;;;5.50;5.50;;;;;8.78;55.79;99377.72;5025859;28;45393;-63
2022/03/31 10:07:10;;;;;;;;;8.00;7.25;;;;;8.73;55.16;99369.22;5022271;28;45595;-63
2022/03/31 10:09:39;;;;;;;;;8.00;8.00;;;;;8.78;55.42;99393.47;5021619;28;46076;-65
2022/03/31 10:12:17;;;;;;;;;9.50;8.00;;;;;8.64;55.15;99396.72;5014594;28;45396;-64
2022/03/31 10:14:59;;;;;;;;;12.75;10.25;;;;;8.58;55.92;99382.16;5015822;28;45448;-64
2022/03/31 10:17:30;;;;;;;;;12.25;10.50;;;;;8.70;56.56;99398.22;5015510;28;45505;-65
2022/03/31 10:20:14;;;;;;;;;7.75;7.75;;;;;8.74;56.16;99411.13;5015578;28;45419;-64
2022/03/31 10:25:37;;;;;;;;;9.25;9.25;;;;;8.75;55.51;99420.66;5015260;28;45529;-64
2022/03/31 10:28:14;;;;;;;;;8.25;8.25;;;;;8.71;55.75;99402.56;5015632;28;45625;-64
2022/03/31 10:30:52;;;;;;;;;11.00;11.00;;;;;8.82;56.22;99411.59;5012595;28;46756;-64
2022/03/31 10:33:46;;;;;;;;;10.00;10.00;;;;;8.92;55.58;99405.91;5015372;28;45407;-64
2022/03/31 10:36:14;;;;;;;;;8.00;7.50;;;;;8.88;55.57;99396.50;5015166;28;45424;-64
2022/03/31 10:39:03;;;;;;;;;6.75;6.75;;;;;8.85;55.12;99400.97;5015344;28;45517;-63
2022/03/31 10:41:34;;;;;;;;;4.00;4.00;;;;;8.84;56.00;99395.81;5015234;28;46262;-64
2022/03/31 10:44:03;;;;;;;;;10.25;7.75;;;;;8.90;55.88;99377.16;5015182;28;45530;-64
2022/03/31 10:46:32;;;;;;;;;4.75;2.75;;;;;9.03;55.89;99388.75;5014984;28;45438;-64
2022/03/31 10:48:58;;;;;;;;;7.00;7.00;;;;;9.16;55.76;99383.78;5014971;28;45522;-65
2022/03/31 10:51:32;;;;;;;;;8.00;6.50;;;;;9.25;55.03;99387.72;5014706;28;46246;-64
2022/03/31 10:53:57;;;;;;;;;4.50;4.50;;;;;9.25;54.58;99378.06;5014784;28;45361;-64
2022/03/31 10:56:28;;;;;;;;;5.00;4.00;;;;;9.33;55.10;99382.94;5014679;28;45411;-64
2022/03/31 10:58:57;;;;;;;;;6.25;5.75;;;;;9.39;54.54;99389.63;5013624;28;45471;-64
2022/03/31 11:01:31;;;;;;;;;4.00;4.00;;;;;9.39;54.57;99373.91;5018093;28;45494;-64
2022/03/31 11:04:06;;;;;;;;;4.00;4.00;;;;;9.48;54.33;99383.91;5031732;28;45354;-64
2022/03/31 11:06:32;;;;;;;;;3.75;3.75;;;;;9.28;54.38;99377.91;5028829;28;45543;-64
2022/03/31 11:08:58;;;;;;;;;6.50;6.25;;;;;9.23;54.27;99385.16;5034731;28;45494;-63
2022/03/31 11:11:28;;;;;;;;;3.00;3.00;;;;;9.30;54.15;99388.34;5030867;28;45436;-63
2022/03/31 11:13:56;;;;;;;;;3.50;2.75;;;;;9.30;54.45;99383.09;5014730;28;45398;-63
2022/03/31 11:16:33;;;;;;;;;2.75;2.75;;;;;9.37;53.88;99389.72;5014733;28;45466;-63
2022/03/31 11:19:04;;;;;;;;;3.75;3.75;;;;;9.46;53.76;99391.03;5016185;28;45503;-63
2022/03/31 11:21:40;;;;;;;;;4.00;4.00;;;;;9.52;53.61;99402.06;5012871;28;45451;-64
2022/03/31 11:24:07;;;;;;;;;3.25;3.25;;;;;9.50;53.67;99393.41;5014542;28;45499;-63
2022/03/31 11:26:44;;;;;;;;;5.00;5.00;;;;;9.43;54.04;99388.53;5014491;28;45468;-63